sensor_id;sensor_type;location;lat;lon;timestamp;pressure;altitude;pressure_sealevel;temperature;humidity
78309;BME280;75657;42.022;21.356;2024-03-08T00:01:47;98712.19;;;7.19;70.68
78309;BME280;75657;42.022;21.356;2024-03-08T00:04:13;98714.38;;;7.07;71.38
78309;BME280;75657;42.022;21.356;2024-03-08T00:06:41;98707.75;;;7.04;71.15
78309;BME280;75657;42.022;21.356;2024-03-08T00:09:06;98709.09;;;7.07;72.02
78309;BME280;75657;42.022;21.356;2024-03-08T00:11:33;98711.97;;;7.10;71.36
78309;BME280;75657;42.022;21.356;2024-03-08T00:14:00;98710.63;;;7.13;71.40
78309;BME280;75657;42.022;21.356;2024-03-08T00:16:25;98702.41;;;7.14;71.36
78309;BME280;75657;42.022;21.356;2024-03-08T00:18:51;98705.63;;;7.11;71.18
78309;BME280;75657;42.022;21.356;2024-03-08T00:21:17;98698.47;;;7.12;71.09
78309;BME280;75657;42.022;21.356;2024-03-08T00:23:42;98708.78;;;7.13;70.60
78309;BME280;75657;42.022;21.356;2024-03-08T00:26:08;98703.47;;;7.13;71.04
78309;BME280;75657;42.022;21.356;2024-03-08T00:28:33;98702.41;;;7.14;71.37
78309;BME280;75657;42.022;21.356;2024-03-08T00:31:02;98702.94;;;7.16;71.18
78309;BME280;75657;42.022;21.356;2024-03-08T00:33:28;98704.78;;;7.16;70.79
78309;BME280;75657;42.022;21.356;2024-03-08T00:35:54;98695.28;;;7.15;70.81
78309;BME280;75657;42.022;21.356;2024-03-08T00:38:19;98701.34;;;7.15;70.83
78309;BME280;75657;42.022;21.356;2024-03-08T00:40:45;98696.56;;;7.17;70.56
78309;BME280;75657;42.022;21.356;2024-03-08T00:43:11;98698.69;;;7.15;71.02
78309;BME280;75657;42.022;21.356;2024-03-08T00:45:36;98710.34;;;7.14;70.88
78309;BME280;75657;42.022;21.356;2024-03-08T00:48:03;98704.06;;;7.05;70.88
78309;BME280;75657;42.022;21.356;2024-03-08T00:50:29;98706.47;;;7.02;71.55
78309;BME280;75657;42.022;21.356;2024-03-08T00:52:54;98705.97;;;6.94;71.51
78309;BME280;75657;42.022;21.356;2024-03-08T00:55:20;98708.91;;;6.93;71.47
78309;BME280;75657;42.022;21.356;2024-03-08T00:57:45;98702.31;;;6.90;71.77
78309;BME280;75657;42.022;21.356;2024-03-08T01:00:12;98703.91;;;6.86;72.11
78309;BME280;75657;42.022;21.356;2024-03-08T01:02:40;98712.38;;;6.83;72.00
78309;BME280;75657;42.022;21.356;2024-03-08T01:05:06;98709.72;;;6.83;72.00
78309;BME280;75657;42.022;21.356;2024-03-08T01:07:35;98711.59;;;6.83;71.49
78309;BME280;75657;42.022;21.356;2024-03-08T01:10:02;98710.81;;;6.82;71.71
78309;BME280;75657;42.022;21.356;2024-03-08T01:12:28;98705.78;;;6.80;71.63
78309;BME280;75657;42.022;21.356;2024-03-08T01:14:54;98704.72;;;6.82;71.95
78309;BME280;75657;42.022;21.356;2024-03-08T01:17:20;98702.88;;;6.82;71.39
78309;BME280;75657;42.022;21.356;2024-03-08T01:19:45;98701.84;;;6.78;71.86
78309;BME280;75657;42.022;21.356;2024-03-08T01:22:11;98706.84;;;6.74;71.79
78309;BME280;75657;42.022;21.356;2024-03-08T01:24:36;98703.44;;;6.69;71.82
78309;BME280;75657;42.022;21.356;2024-03-08T01:27:02;98705.84;;;6.65;71.48
78309;BME280;75657;42.022;21.356;2024-03-08T01:29:28;98695.56;;;6.58;71.88
78309;BME280;75657;42.022;21.356;2024-03-08T01:31:55;98706.41;;;6.57;71.78
78309;BME280;75657;42.022;21.356;2024-03-08T01:34:21;98699.78;;;6.59;71.41
78309;BME280;75657;42.022;21.356;2024-03-08T01:36:48;98708.00;;;6.58;71.47
78309;BME280;75657;42.022;21.356;2024-03-08T01:39:14;98708.28;;;6.51;71.64
78309;BME280;75657;42.022;21.356;2024-03-08T01:41:40;98708.03;;;6.53;71.79
78309;BME280;75657;42.022;21.356;2024-03-08T01:44:05;98708.81;;;6.53;71.93
78309;BME280;75657;42.022;21.356;2024-03-08T01:46:33;98708.81;;;6.53;72.15
78309;BME280;75657;42.022;21.356;2024-03-08T01:48:59;98704.84;;;6.51;71.61
78309;BME280;75657;42.022;21.356;2024-03-08T01:51:29;98703.00;;;6.46;72.17
78309;BME280;75657;42.022;21.356;2024-03-08T01:53:56;98703.81;;;6.47;71.98
78309;BME280;75657;42.022;21.356;2024-03-08T01:56:25;98710.69;;;6.48;72.05
78309;BME280;75657;42.022;21.356;2024-03-08T01:58:51;98707.25;;;6.47;72.42
78309;BME280;75657;42.022;21.356;2024-03-08T02:01:18;98709.38;;;6.45;72.36
78309;BME280;75657;42.022;21.356;2024-03-08T02:03:44;98713.59;;;6.46;72.79
78309;BME280;75657;42.022;21.356;2024-03-08T02:06:13;98698.00;;;6.45;72.54
78309;BME280;75657;42.022;21.356;2024-03-08T02:08:41;98713.34;;;6.42;72.43
78309;BME280;75657;42.022;21.356;2024-03-08T02:11:07;98710.44;;;6.44;72.14
78309;BME280;75657;42.022;21.356;2024-03-08T02:13:33;98717.31;;;6.45;72.81
78309;BME280;75657;42.022;21.356;2024-03-08T02:16:00;98717.06;;;6.47;72.45
78309;BME280;75657;42.022;21.356;2024-03-08T02:18:27;98718.09;;;6.46;73.05
78309;BME280;75657;42.022;21.356;2024-03-08T02:21:01;98713.31;;;6.48;72.53
78309;BME280;75657;42.022;21.356;2024-03-08T02:23:28;98713.56;;;6.51;72.25
78309;BME280;75657;42.022;21.356;2024-03-08T02:25:55;98713.31;;;6.53;72.30
78309;BME280;75657;42.022;21.356;2024-03-08T02:28:21;98709.88;;;6.57;72.29
78309;BME280;75657;42.022;21.356;2024-03-08T02:30:51;98717.53;;;6.59;72.02
78309;BME280;75657;42.022;21.356;2024-03-08T02:33:21;98716.72;;;6.58;72.31
78309;BME280;75657;42.022;21.356;2024-03-08T02:35:48;98718.31;;;6.59;72.23
78309;BME280;75657;42.022;21.356;2024-03-08T02:38:20;98715.41;;;6.61;72.32
78309;BME280;75657;42.022;21.356;2024-03-08T02:40:47;98715.41;;;6.61;72.40
78309;BME280;75657;42.022;21.356;2024-03-08T02:43:14;98717.22;;;6.66;71.88
78309;BME280;75657;42.022;21.356;2024-03-08T02:45:40;98722.81;;;6.64;72.48
78309;BME280;75657;42.022;21.356;2024-03-08T02:48:09;98727.03;;;6.60;72.62
78309;BME280;75657;42.022;21.356;2024-03-08T02:50:36;98723.59;;;6.59;72.38
78309;BME280;75657;42.022;21.356;2024-03-08T02:53:02;98720.72;;;6.56;72.04
78309;BME280;75657;42.022;21.356;2024-03-08T02:55:28;98723.88;;;6.53;72.22
78309;BME280;75657;42.022;21.356;2024-03-08T02:57:54;98727.31;;;6.53;71.91
78309;BME280;75657;42.022;21.356;2024-03-08T03:00:21;98727.06;;;6.50;71.83
78309;BME280;75657;42.022;21.356;2024-03-08T03:02:51;98719.38;;;6.53;72.34
78309;BME280;75657;42.022;21.356;2024-03-08T03:05:22;98723.34;;;6.56;72.21
78309;BME280;75657;42.022;21.356;2024-03-08T03:07:49;98719.38;;;6.58;72.52
78309;BME280;75657;42.022;21.356;2024-03-08T03:10:16;98725.97;;;6.61;71.79
78309;BME280;75657;42.022;21.356;2024-03-08T03:12:43;98726.50;;;6.63;72.19
78309;BME280;75657;42.022;21.356;2024-03-08T03:15:10;98727.03;;;6.65;71.59
78309;BME280;75657;42.022;21.356;2024-03-08T03:17:37;98734.94;;;6.65;72.01
78309;BME280;75657;42.022;21.356;2024-03-08T03:20:05;98739.47;;;6.65;72.21
78309;BME280;75657;42.022;21.356;2024-03-08T03:22:36;98738.94;;;6.68;71.80
78309;BME280;75657;42.022;21.356;2024-03-08T03:25:03;98739.19;;;6.66;72.27
78309;BME280;75657;42.022;21.356;2024-03-08T03:27:29;98741.03;;;6.66;72.36
78309;BME280;75657;42.022;21.356;2024-03-08T03:29:55;98732.84;;;6.62;71.83
78309;BME280;75657;42.022;21.356;2024-03-08T03:32:23;98735.78;;;6.60;72.46
78309;BME280;75657;42.022;21.356;2024-03-08T03:34:49;98736.56;;;6.61;72.17
78309;BME280;75657;42.022;21.356;2024-03-08T03:37:21;98740.25;;;6.65;72.64
78309;BME280;75657;42.022;21.356;2024-03-08T03:39:46;98739.22;;;6.61;72.99
78309;BME280;75657;42.022;21.356;2024-03-08T03:42:17;98740.53;;;6.58;73.20
78309;BME280;75657;42.022;21.356;2024-03-08T03:44:47;98739.22;;;6.56;73.07
78309;BME280;75657;42.022;21.356;2024-03-08T03:47:13;98737.09;;;6.58;72.78
78309;BME280;75657;42.022;21.356;2024-03-08T03:49:38;98734.47;;;6.58;73.09
78309;BME280;75657;42.022;21.356;2024-03-08T03:52:04;98734.47;;;6.58;72.69
78309;BME280;75657;42.022;21.356;2024-03-08T03:54:31;98727.31;;;6.58;72.91
78309;BME280;75657;42.022;21.356;2024-03-08T03:56:56;98726.53;;;6.58;72.58
78309;BME280;75657;42.022;21.356;2024-03-08T03:59:22;98740.84;;;6.52;72.55
78309;BME280;75657;42.022;21.356;2024-03-08T04:01:47;98731.06;;;6.47;73.17
78309;BME280;75657;42.022;21.356;2024-03-08T04:04:15;98737.97;;;6.38;72.83
78309;BME280;75657;42.022;21.356;2024-03-08T04:06:40;98736.66;;;6.30;72.90
78309;BME280;75657;42.022;21.356;2024-03-08T04:09:06;98744.06;;;6.23;72.95
78309;BME280;75657;42.022;21.356;2024-03-08T04:11:32;98746.47;;;6.19;72.90
78309;BME280;75657;42.022;21.356;2024-03-08T04:13:57;98757.84;;;6.10;73.25
78309;BME280;75657;42.022;21.356;2024-03-08T04:16:23;98749.13;;;6.09;73.70
78309;BME280;75657;42.022;21.356;2024-03-08T04:18:49;98755.47;;;6.08;73.64
78309;BME280;75657;42.022;21.356;2024-03-08T04:21:15;98754.94;;;6.06;73.53
78309;BME280;75657;42.022;21.356;2024-03-08T04:23:40;98759.69;;;5.99;74.26
78309;BME280;75657;42.022;21.356;2024-03-08T04:26:06;98766.06;;;5.98;74.18
78309;BME280;75657;42.022;21.356;2024-03-08T04:28:32;98769.50;;;5.98;74.18
78309;BME280;75657;42.022;21.356;2024-03-08T04:30:58;98765.00;;;5.99;74.53
78309;BME280;75657;42.022;21.356;2024-03-08T04:33:26;98770.28;;;5.99;74.66
78309;BME280;75657;42.022;21.356;2024-03-08T04:35:52;98771.09;;;5.99;74.30
78309;BME280;75657;42.022;21.356;2024-03-08T04:38:18;98771.84;;;5.95;74.51
78309;BME280;75657;42.022;21.356;2024-03-08T04:40:43;98777.13;;;5.84;74.27
78309;BME280;75657;42.022;21.356;2024-03-08T04:43:09;98784.53;;;5.82;74.74
78309;BME280;75657;42.022;21.356;2024-03-08T04:45:36;98784.00;;;5.80;74.54
78309;BME280;75657;42.022;21.356;2024-03-08T04:48:02;98778.16;;;5.78;74.86
78309;BME280;75657;42.022;21.356;2024-03-08T04:50:28;98785.84;;;5.80;74.65
78309;BME280;75657;42.022;21.356;2024-03-08T04:52:54;98789.28;;;5.75;74.89
78309;BME280;75657;42.022;21.356;2024-03-08T04:55:20;98795.09;;;5.72;74.44
78309;BME280;75657;42.022;21.356;2024-03-08T04:57:49;98790.31;;;5.64;74.24
78309;BME280;75657;42.022;21.356;2024-03-08T05:00:15;98800.34;;;5.57;75.01
78309;BME280;75657;42.022;21.356;2024-03-08T05:02:41;98798.22;;;5.48;74.94
78309;BME280;75657;42.022;21.356;2024-03-08T05:05:07;98804.03;;;5.40;74.75
78309;BME280;75657;42.022;21.356;2024-03-08T05:07:40;98804.25;;;5.28;75.43
78309;BME280;75657;42.022;21.356;2024-03-08T05:10:06;98804.78;;;5.25;75.32
78309;BME280;75657;42.022;21.356;2024-03-08T05:12:33;98812.72;;;5.30;75.66
78309;BME280;75657;42.022;21.356;2024-03-08T05:14:58;98814.31;;;5.37;75.28
78309;BME280;75657;42.022;21.356;2024-03-08T05:17:24;98816.97;;;5.42;75.20
78309;BME280;75657;42.022;21.356;2024-03-08T05:19:50;98818.56;;;5.48;74.99
78309;BME280;75657;42.022;21.356;2024-03-08T05:22:16;98818.81;;;5.46;75.99
78309;BME280;75657;42.022;21.356;2024-03-08T05:24:42;98819.88;;;5.45;75.26
78309;BME280;75657;42.022;21.356;2024-03-08T05:27:08;98822.78;;;5.49;74.80
78309;BME280;75657;42.022;21.356;2024-03-08T05:29:33;98830.72;;;5.54;75.25
78309;BME280;75657;42.022;21.356;2024-03-08T05:31:59;98833.91;;;5.61;75.14
78309;BME280;75657;42.022;21.356;2024-03-08T05:34:25;98840.25;;;5.65;74.85
78309;BME280;75657;42.022;21.356;2024-03-08T05:36:51;98839.47;;;5.65;75.02
78309;BME280;75657;42.022;21.356;2024-03-08T05:39:19;98848.72;;;5.73;74.79
78309;BME280;75657;42.022;21.356;2024-03-08T05:41:47;98849.50;;;5.78;74.97
78309;BME280;75657;42.022;21.356;2024-03-08T05:44:13;98852.16;;;5.83;74.87
78309;BME280;75657;42.022;21.356;2024-03-08T05:46:39;98861.16;;;5.93;74.08
78309;BME280;75657;42.022;21.356;2024-03-08T05:49:05;98851.69;;;6.02;74.71
78309;BME280;75657;42.022;21.356;2024-03-08T05:51:35;98861.75;;;6.15;73.98
78309;BME280;75657;42.022;21.356;2024-03-08T05:54:05;98859.38;;;6.24;74.01
78309;BME280;75657;42.022;21.356;2024-03-08T05:56:34;98859.63;;;6.33;74.40
78309;BME280;75657;42.022;21.356;2024-03-08T05:58:59;98860.91;;;6.46;73.98
78309;BME280;75657;42.022;21.356;2024-03-08T06:01:26;98867.50;;;6.58;73.52
78309;BME280;75657;42.022;21.356;2024-03-08T06:03:52;98870.66;;;6.66;73.28
78309;BME280;75657;42.022;21.356;2024-03-08T06:06:21;98871.97;;;6.78;72.59
78309;BME280;75657;42.022;21.356;2024-03-08T06:08:47;98867.72;;;6.88;72.50
78309;BME280;75657;42.022;21.356;2024-03-08T06:11:15;98868.22;;;6.95;72.59
78309;BME280;75657;42.022;21.356;2024-03-08T06:13:40;98871.34;;;7.07;72.29
78309;BME280;75657;42.022;21.356;2024-03-08T06:16:06;98870.03;;;7.15;72.62
78309;BME280;75657;42.022;21.356;2024-03-08T06:18:34;98865.50;;;7.21;72.37
78309;BME280;75657;42.022;21.356;2024-03-08T06:21:03;98871.31;;;7.23;71.87
78309;BME280;75657;42.022;21.356;2024-03-08T06:23:31;98875.28;;;7.25;71.56
78309;BME280;75657;42.022;21.356;2024-03-08T06:25:56;98884.25;;;7.34;71.43
78309;BME280;75657;42.022;21.356;2024-03-08T06:28:23;98879.19;;;7.38;71.38
78309;BME280;75657;42.022;21.356;2024-03-08T06:30:48;98875.16;;;7.46;71.29
78309;BME280;75657;42.022;21.356;2024-03-08T06:33:15;98874.38;;;7.50;71.14
78309;BME280;75657;42.022;21.356;2024-03-08T06:35:41;98875.13;;;7.56;71.42
78309;BME280;75657;42.022;21.356;2024-03-08T06:38:07;98880.88;;;7.68;71.07
78309;BME280;75657;42.022;21.356;2024-03-08T06:40:32;98880.31;;;7.77;70.21
78309;BME280;75657;42.022;21.356;2024-03-08T06:42:58;98882.59;;;7.93;70.50
78309;BME280;75657;42.022;21.356;2024-03-08T06:45:24;98878.75;;;8.10;70.21
78309;BME280;75657;42.022;21.356;2024-03-08T06:47:51;98888.72;;;8.28;70.00
78309;BME280;75657;42.022;21.356;2024-03-08T06:50:16;98883.53;;;8.47;69.37
78309;BME280;75657;42.022;21.356;2024-03-08T06:52:42;98884.50;;;8.57;68.60
78309;BME280;75657;42.022;21.356;2024-03-08T06:55:08;98887.34;;;8.65;69.26
78309;BME280;75657;42.022;21.356;2024-03-08T06:57:41;98887.38;;;8.90;68.89
78309;BME280;75657;42.022;21.356;2024-03-08T07:00:07;98893.03;;;9.07;68.34
78309;BME280;75657;42.022;21.356;2024-03-08T07:02:37;98892.13;;;9.17;67.80
78309;BME280;75657;42.022;21.356;2024-03-08T07:05:05;98883.25;;;9.26;66.63
78309;BME280;75657;42.022;21.356;2024-03-08T07:07:31;98895.25;;;9.43;66.78
78309;BME280;75657;42.022;21.356;2024-03-08T07:09:59;98885.56;;;9.52;66.58
78309;BME280;75657;42.022;21.356;2024-03-08T07:12:24;98895.56;;;9.60;66.44
78309;BME280;75657;42.022;21.356;2024-03-08T07:14:50;98890.47;;;9.64;65.67
78309;BME280;75657;42.022;21.356;2024-03-08T07:17:15;98896.97;;;9.77;65.65
78309;BME280;75657;42.022;21.356;2024-03-08T07:19:41;98892.00;;;9.89;65.42
78309;BME280;75657;42.022;21.356;2024-03-08T07:22:07;98893.69;;;9.99;65.04
78309;BME280;75657;42.022;21.356;2024-03-08T07:24:37;98891.75;;;10.05;65.13
78309;BME280;75657;42.022;21.356;2024-03-08T07:27:05;98888.53;;;10.08;64.75
78309;BME280;75657;42.022;21.356;2024-03-08T07:29:34;98888.56;;;10.21;64.58
78309;BME280;75657;42.022;21.356;2024-03-08T07:32:07;98896.56;;;10.41;64.24
78309;BME280;75657;42.022;21.356;2024-03-08T07:35:02;98895.59;;;10.50;63.45
78309;BME280;75657;42.022;21.356;2024-03-08T07:37:29;98895.13;;;10.62;63.52
78309;BME280;75657;42.022;21.356;2024-03-08T07:39:54;98894.94;;;10.72;63.07
78309;BME280;75657;42.022;21.356;2024-03-08T07:42:20;98891.31;;;10.82;62.80
78309;BME280;75657;42.022;21.356;2024-03-08T07:44:47;98900.19;;;10.91;63.04
78309;BME280;75657;42.022;21.356;2024-03-08T07:47:13;98905.34;;;11.02;63.08
78309;BME280;75657;42.022;21.356;2024-03-08T07:49:39;98893.50;;;11.08;62.01
78309;BME280;75657;42.022;21.356;2024-03-08T07:52:04;98897.53;;;11.19;61.79
78309;BME280;75657;42.022;21.356;2024-03-08T07:54:32;98899.91;;;11.34;61.14
78309;BME280;75657;42.022;21.356;2024-03-08T07:56:58;98895.81;;;11.51;61.04
78309;BME280;75657;42.022;21.356;2024-03-08T07:59:23;98884.94;;;11.61;61.37
78309;BME280;75657;42.022;21.356;2024-03-08T08:01:49;98890.84;;;11.72;60.25
78309;BME280;75657;42.022;21.356;2024-03-08T08:04:15;98882.63;;;11.82;60.23
78309;BME280;75657;42.022;21.356;2024-03-08T08:06:43;98885.75;;;11.98;59.21
78309;BME280;75657;42.022;21.356;2024-03-08T08:09:08;98892.28;;;12.06;58.57
78309;BME280;75657;42.022;21.356;2024-03-08T08:11:42;98876.69;;;11.99;58.92
78309;BME280;75657;42.022;21.356;2024-03-08T08:14:09;98872.06;;;11.77;58.57
78309;BME280;75657;42.022;21.356;2024-03-08T08:16:35;98871.81;;;11.65;59.08
78309;BME280;75657;42.022;21.356;2024-03-08T08:19:02;98865.88;;;11.68;59.35
78309;BME280;75657;42.022;21.356;2024-03-08T08:21:36;98864.59;;;11.65;58.70
78309;BME280;75657;42.022;21.356;2024-03-08T08:24:04;98864.78;;;11.69;58.44
78309;BME280;75657;42.022;21.356;2024-03-08T08:26:30;98864.09;;;11.63;58.71
78309;BME280;75657;42.022;21.356;2024-03-08T08:28:56;98870.34;;;11.59;59.17
78309;BME280;75657;42.022;21.356;2024-03-08T08:31:21;98867.59;;;11.50;59.39
78309;BME280;75657;42.022;21.356;2024-03-08T08:33:47;98870.47;;;11.40;58.46
78309;BME280;75657;42.022;21.356;2024-03-08T08:36:14;98861.91;;;11.43;59.33
78309;BME280;75657;42.022;21.356;2024-03-08T08:38:40;98856.91;;;11.64;59.10
78309;BME280;75657;42.022;21.356;2024-03-08T08:41:09;98854.84;;;11.61;58.33
78309;BME280;75657;42.022;21.356;2024-03-08T08:43:35;98852.13;;;11.75;58.13
78309;BME280;75657;42.022;21.356;2024-03-08T08:46:00;98860.19;;;11.83;58.10
78309;BME280;75657;42.022;21.356;2024-03-08T08:48:26;98856.41;;;11.98;57.79
78309;BME280;75657;42.022;21.356;2024-03-08T08:50:53;98850.41;;;12.15;57.55
78309;BME280;75657;42.022;21.356;2024-03-08T08:53:18;98855.84;;;12.33;56.96
78309;BME280;75657;42.022;21.356;2024-03-08T08:55:44;98845.88;;;12.47;56.96
78309;BME280;75657;42.022;21.356;2024-03-08T08:58:11;98847.97;;;12.59;57.51
78309;BME280;75657;42.022;21.356;2024-03-08T09:00:36;98844.56;;;12.67;55.99
78309;BME280;75657;42.022;21.356;2024-03-08T09:03:02;98842.41;;;12.78;55.96
78309;BME280;75657;42.022;21.356;2024-03-08T09:05:28;98834.28;;;12.92;55.85
78309;BME280;75657;42.022;21.356;2024-03-08T09:07:54;98839.66;;;13.00;55.79
78309;BME280;75657;42.022;21.356;2024-03-08T09:10:20;98844.22;;;13.09;55.32
78309;BME280;75657;42.022;21.356;2024-03-08T09:12:46;98842.53;;;13.13;55.59
78309;BME280;75657;42.022;21.356;2024-03-08T09:15:13;98837.03;;;13.18;55.19
78309;BME280;75657;42.022;21.356;2024-03-08T09:17:41;98835.59;;;13.20;55.08
78309;BME280;75657;42.022;21.356;2024-03-08T09:20:09;98831.38;;;13.28;54.33
78309;BME280;75657;42.022;21.356;2024-03-08T09:22:35;98828.91;;;13.32;55.04
78309;BME280;75657;42.022;21.356;2024-03-08T09:25:01;98837.72;;;13.41;53.84
78309;BME280;75657;42.022;21.356;2024-03-08T09:27:30;98824.97;;;13.47;53.83
78309;BME280;75657;42.022;21.356;2024-03-08T09:29:55;98829.88;;;13.53;54.13
78309;BME280;75657;42.022;21.356;2024-03-08T09:32:21;98828.63;;;13.59;53.68
78309;BME280;75657;42.022;21.356;2024-03-08T09:34:48;98825.28;;;13.63;53.14
78309;BME280;75657;42.022;21.356;2024-03-08T09:37:13;98826.25;;;13.67;53.06
78309;BME280;75657;42.022;21.356;2024-03-08T09:39:39;98832.06;;;13.77;53.10
78309;BME280;75657;42.022;21.356;2024-03-08T09:42:04;98833.63;;;13.78;52.46
78309;BME280;75657;42.022;21.356;2024-03-08T09:44:31;98827.66;;;13.73;52.03
78309;BME280;75657;42.022;21.356;2024-03-08T09:46:58;98824.19;;;13.81;52.12
78309;BME280;75657;42.022;21.356;2024-03-08T09:49:24;98831.75;;;13.96;51.16
78309;BME280;75657;42.022;21.356;2024-03-08T09:52:09;98814.59;;;13.45;50.18
78309;BME280;75657;42.022;21.356;2024-03-08T09:54:38;98827.19;;;13.71;51.38
78309;BME280;75657;42.022;21.356;2024-03-08T09:57:06;98819.00;;;13.58;51.62
78309;BME280;75657;42.022;21.356;2024-03-08T09:59:33;98819.16;;;13.62;51.50
78309;BME280;75657;42.022;21.356;2024-03-08T10:02:01;98817.13;;;13.59;50.21
78309;BME280;75657;42.022;21.356;2024-03-08T10:04:28;98813.34;;;13.51;50.46
78309;BME280;75657;42.022;21.356;2024-03-08T10:06:58;98814.91;;;13.52;50.41
78309;BME280;75657;42.022;21.356;2024-03-08T10:09:25;98814.91;;;13.52;51.61
78309;BME280;75657;42.022;21.356;2024-03-08T10:11:56;98819.00;;;13.50;50.29
78309;BME280;75657;42.022;21.356;2024-03-08T10:14:24;98820.44;;;13.47;50.58
78309;BME280;75657;42.022;21.356;2024-03-08T10:16:49;98808.31;;;13.41;50.71
78309;BME280;75657;42.022;21.356;2024-03-08T10:19:15;98795.56;;;13.55;50.06
78309;BME280;75657;42.022;21.356;2024-03-08T10:21:49;98799.34;;;13.81;50.61
78309;BME280;75657;42.022;21.356;2024-03-08T10:24:14;98790.97;;;14.00;50.96
78309;BME280;75657;42.022;21.356;2024-03-08T10:26:40;98791.72;;;14.18;50.31
78309;BME280;75657;42.022;21.356;2024-03-08T10:29:05;98792.91;;;14.38;50.36
78309;BME280;75657;42.022;21.356;2024-03-08T10:31:33;98786.09;;;14.49;49.15
78309;BME280;75657;42.022;21.356;2024-03-08T10:33:58;98788.91;;;14.52;49.54
78309;BME280;75657;42.022;21.356;2024-03-08T10:36:24;98785.94;;;14.45;48.09
78309;BME280;75657;42.022;21.356;2024-03-08T10:38:51;98782.22;;;14.20;49.21
78309;BME280;75657;42.022;21.356;2024-03-08T10:41:19;98771.50;;;14.29;49.27
78309;BME280;75657;42.022;21.356;2024-03-08T10:52:15;98767.94;;;14.63;47.25
78309;BME280;75657;42.022;21.356;2024-03-08T10:54:43;98756.72;;;14.70;48.49
78309;BME280;75657;42.022;21.356;2024-03-08T10:57:12;98758.31;;;14.92;47.91
78309;BME280;75657;42.022;21.356;2024-03-08T10:59:38;98748.31;;;15.01;46.51
78309;BME280;75657;42.022;21.356;2024-03-08T11:02:04;98742.34;;;14.96;47.94
78309;BME280;75657;42.022;21.356;2024-03-08T11:04:33;98748.38;;;14.93;46.15
78309;BME280;75657;42.022;21.356;2024-03-08T11:07:02;98742.81;;;14.98;45.58
78309;BME280;75657;42.022;21.356;2024-03-08T11:09:37;98735.94;;;15.30;47.61
78309;BME280;75657;42.022;21.356;2024-03-08T11:12:27;98732.19;;;15.64;46.42
78309;BME280;75657;42.022;21.356;2024-03-08T11:15:01;98728.25;;;15.95;52.64
78309;BME280;75657;42.022;21.356;2024-03-08T11:19:59;98724.84;;;16.44;53.45
78309;BME280;75657;42.022;21.356;2024-03-08T11:22:32;98711.84;;;16.21;47.78
78309;BME280;75657;42.022;21.356;2024-03-08T11:24:59;98716.88;;;16.35;48.97
78309;BME280;75657;42.022;21.356;2024-03-08T11:27:29;98713.31;;;16.43;46.62
78309;BME280;75657;42.022;21.356;2024-03-08T11:30:04;98702.75;;;16.75;47.37
78309;BME280;75657;42.022;21.356;2024-03-08T11:33:00;98695.38;;;16.97;45.34
78309;BME280;75657;42.022;21.356;2024-03-08T11:35:29;98697.72;;;16.74;45.22
78309;BME280;75657;42.022;21.356;2024-03-08T11:37:58;98704.00;;;16.78;46.71
78309;BME280;75657;42.022;21.356;2024-03-08T11:40:26;98698.97;;;16.76;44.29
78309;BME280;75657;42.022;21.356;2024-03-08T11:42:51;98688.56;;;16.63;44.19
78309;BME280;75657;42.022;21.356;2024-03-08T11:45:18;98692.47;;;16.77;45.67
78309;BME280;75657;42.022;21.356;2024-03-08T11:47:46;98689.09;;;16.80;43.41
78309;BME280;75657;42.022;21.356;2024-03-08T11:50:13;98691.44;;;16.94;42.74
78309;BME280;75657;42.022;21.356;2024-03-08T11:52:39;98686.44;;;17.09;45.51
78309;BME280;75657;42.022;21.356;2024-03-08T11:55:05;98695.34;;;17.38;46.20
78309;BME280;75657;42.022;21.356;2024-03-08T11:57:31;98701.78;;;17.21;45.25
78309;BME280;75657;42.022;21.356;2024-03-08T11:59:58;98695.25;;;17.34;44.76
78309;BME280;75657;42.022;21.356;2024-03-08T12:02:31;98692.44;;;17.59;45.62
78309;BME280;75657;42.022;21.356;2024-03-08T12:05:00;98691.94;;;17.69;44.05
78309;BME280;75657;42.022;21.356;2024-03-08T12:07:31;98684.50;;;17.50;43.77
78309;BME280;75657;42.022;21.356;2024-03-08T12:10:16;98682.31;;;17.40;43.49
78309;BME280;75657;42.022;21.356;2024-03-08T12:12:50;98683.91;;;17.57;43.78
78309;BME280;75657;42.022;21.356;2024-03-08T12:15:17;98680.44;;;17.56;42.81
78309;BME280;75657;42.022;21.356;2024-03-08T12:17:47;98675.53;;;17.30;40.69
78309;BME280;75657;42.022;21.356;2024-03-08T12:20:17;98672.38;;;17.28;43.11
78309;BME280;75657;42.022;21.356;2024-03-08T12:22:46;98667.13;;;17.19;42.22
78309;BME280;75657;42.022;21.356;2024-03-08T12:25:12;98668.75;;;17.36;42.21
78309;BME280;75657;42.022;21.356;2024-03-08T12:27:41;98673.16;;;17.57;43.36
78309;BME280;75657;42.022;21.356;2024-03-08T12:32:52;98651.13;;;17.83;43.03
78309;BME280;75657;42.022;21.356;2024-03-08T12:35:20;98656.41;;;17.79;41.20
78309;BME280;75657;42.022;21.356;2024-03-08T12:37:49;98657.31;;;17.39;40.49
78309;BME280;75657;42.022;21.356;2024-03-08T12:40:16;98639.38;;;17.15;40.21
78309;BME280;75657;42.022;21.356;2024-03-08T12:42:44;98639.47;;;17.18;41.89
78309;BME280;75657;42.022;21.356;2024-03-08T12:45:12;98647.84;;;17.45;42.48
78309;BME280;75657;42.022;21.356;2024-03-08T12:47:38;98653.72;;;17.63;42.54
78309;BME280;75657;42.022;21.356;2024-03-08T12:50:04;98646.28;;;17.28;40.17
78309;BME280;75657;42.022;21.356;2024-03-08T12:52:29;98655.97;;;17.33;42.18
78309;BME280;75657;42.022;21.356;2024-03-08T12:54:55;98649.66;;;17.41;42.37
78309;BME280;75657;42.022;21.356;2024-03-08T12:57:28;98653.47;;;17.40;42.97
78309;BME280;75657;42.022;21.356;2024-03-08T12:59:54;98646.88;;;17.38;43.01
78309;BME280;75657;42.022;21.356;2024-03-08T13:02:20;98640.63;;;17.05;39.58
78309;BME280;75657;42.022;21.356;2024-03-08T13:04:46;98649.00;;;16.63;39.69
78309;BME280;75657;42.022;21.356;2024-03-08T13:07:21;98652.06;;;16.49;40.58
78309;BME280;75657;42.022;21.356;2024-03-08T13:09:46;98654.16;;;16.68;41.25